createdAt,value
2018-06-15T00:09:39.000Z,22.3
2018-06-15T00:19:39.000Z,22.3
2018-06-15T00:29:39.000Z,22.3
2018-06-15T00:39:39.000Z,22.3
2018-06-15T00:49:39.000Z,22.2
2018-06-15T00:59:39.000Z,22.1
2018-06-15T01:09:39.000Z,22.2
2018-06-15T01:19:39.000Z,22.1
2018-06-15T01:29:40.000Z,22.1
2018-06-15T01:39:40.000Z,22.1
2018-06-15T01:49:40.000Z,22.2
2018-06-15T01:59:40.000Z,22.1
2018-06-15T02:09:40.000Z,22
2018-06-15T02:19:40.000Z,22
2018-06-15T02:29:40.000Z,22
2018-06-15T02:39:40.000Z,21.9
2018-06-15T02:49:40.000Z,22
2018-06-15T02:59:40.000Z,22
2018-06-15T03:09:40.000Z,21.8
2018-06-15T03:19:40.000Z,21.8
2018-06-15T03:29:40.000Z,21.8
2018-06-15T03:39:40.000Z,21.8
2018-06-15T03:49:40.000Z,21.9
2018-06-15T03:59:40.000Z,21.8
2018-06-15T04:09:40.000Z,21.8
2018-06-15T04:19:40.000Z,21.7
2018-06-15T04:29:40.000Z,21.8
2018-06-15T04:39:40.000Z,21.7
2018-06-15T04:49:40.000Z,21.8
2018-06-15T04:59:40.000Z,21.8
2018-06-15T05:09:40.000Z,21.8
2018-06-15T05:19:40.000Z,22
2018-06-15T05:29:40.000Z,22.3
2018-06-15T05:39:40.000Z,22.4
2018-06-15T05:49:40.000Z,22.5
2018-06-15T05:59:40.000Z,22.5
2018-06-15T06:09:40.000Z,22.5
2018-06-15T06:19:40.000Z,22.5
2018-06-15T06:29:40.000Z,22.6
2018-06-15T06:39:40.000Z,22.6
2018-06-15T06:49:40.000Z,22.6
2018-06-15T06:59:40.000Z,22.8
2018-06-15T07:09:40.000Z,22.8
2018-06-15T07:19:40.000Z,22.8
2018-06-15T07:29:40.000Z,22.8
2018-06-15T07:39:40.000Z,22.9
2018-06-15T07:49:40.000Z,22.8
2018-06-15T07:59:40.000Z,22.8
2018-06-15T08:09:40.000Z,22.8
2018-06-15T08:19:41.000Z,22.8
2018-06-15T08:29:41.000Z,22.8
2018-06-15T08:39:41.000Z,22.9
2018-06-15T08:49:41.000Z,22.9
2018-06-15T08:59:41.000Z,22.7
2018-06-15T09:09:41.000Z,22.8
2018-06-15T09:19:41.000Z,22.8
2018-06-15T09:29:41.000Z,22.9
2018-06-15T09:39:41.000Z,22.9
2018-06-15T09:49:41.000Z,22.9
2018-06-15T09:59:41.000Z,22.9
2018-06-15T10:09:41.000Z,22.9
2018-06-15T10:19:41.000Z,23
2018-06-15T10:29:41.000Z,22.9
2018-06-15T10:39:41.000Z,23
2018-06-15T10:49:41.000Z,22.9
2018-06-15T10:59:41.000Z,22.8
2018-06-15T11:09:41.000Z,22.9
2018-06-15T11:19:41.000Z,22.8
2018-06-15T11:29:41.000Z,23
2018-06-15T11:39:41.000Z,22.9
2018-06-15T11:49:41.000Z,22.9
2018-06-15T11:59:41.000Z,22.8
2018-06-15T12:09:41.000Z,22.9
2018-06-15T12:19:41.000Z,23
2018-06-15T12:29:41.000Z,23
2018-06-15T12:39:41.000Z,23
2018-06-15T12:49:41.000Z,23
2018-06-15T12:59:41.000Z,23
2018-06-15T13:09:41.000Z,22.9
2018-06-15T13:19:41.000Z,23
2018-06-15T13:29:41.000Z,23
2018-06-15T13:39:41.000Z,23
2018-06-15T13:49:41.000Z,23.2
2018-06-15T13:59:41.000Z,23.2
2018-06-15T14:09:41.000Z,23.2
2018-06-15T14:19:41.000Z,23.2
2018-06-15T14:29:41.000Z,23.2
2018-06-15T14:39:41.000Z,23.2
2018-06-15T14:49:42.000Z,23.1
2018-06-15T14:59:41.000Z,23.3
2018-06-15T15:09:41.000Z,23.4
2018-06-15T15:19:42.000Z,23.4
2018-06-15T15:29:42.000Z,23.4
2018-06-15T15:39:42.000Z,23.4
2018-06-15T15:49:42.000Z,23.4
2018-06-15T15:59:42.000Z,23.3
2018-06-15T16:09:42.000Z,23.4
2018-06-15T16:19:42.000Z,23.3
2018-06-15T16:29:42.000Z,23.3
2018-06-15T16:39:42.000Z,23.3
2018-06-15T16:49:42.000Z,23.3
2018-06-15T16:59:42.000Z,23.3
2018-06-15T17:09:42.000Z,23.3
2018-06-15T17:19:42.000Z,23.2
2018-06-15T17:29:42.000Z,23.3
2018-06-15T17:39:42.000Z,23.3
2018-06-15T17:49:42.000Z,23.3
2018-06-15T17:59:42.000Z,23.3
2018-06-15T18:09:42.000Z,23.3
2018-06-15T18:19:42.000Z,23.3
2018-06-15T18:29:43.000Z,23.3
2018-06-15T18:39:42.000Z,23.3
2018-06-15T18:49:42.000Z,23.3
2018-06-15T18:59:42.000Z,23.3
2018-06-15T19:09:42.000Z,23.2
2018-06-15T19:29:42.000Z,23.3
2018-06-15T19:39:42.000Z,23.2
2018-06-15T19:49:42.000Z,23.4
2018-06-15T19:59:42.000Z,23.3
2018-06-15T20:09:42.000Z,23.3
2018-06-15T20:19:42.000Z,23.3
2018-06-15T20:29:42.000Z,23.3
2018-06-15T20:39:42.000Z,23.3
2018-06-15T20:49:42.000Z,23.3
2018-06-15T20:59:44.000Z,23.3
2018-06-15T21:09:43.000Z,23.3
2018-06-15T21:19:42.000Z,23.3
2018-06-15T21:29:42.000Z,23.5
2018-06-15T21:39:42.000Z,23.4
2018-06-15T21:49:42.000Z,23.3
2018-06-15T21:59:43.000Z,23.3
2018-06-15T22:09:43.000Z,23.2
2018-06-15T22:19:43.000Z,23.2
2018-06-15T22:29:43.000Z,23.2
2018-06-15T22:39:43.000Z,23.1
2018-06-15T22:49:43.000Z,23.2
2018-06-15T22:59:43.000Z,23.1
2018-06-15T23:09:43.000Z,23.1
2018-06-15T23:19:43.000Z,23.1
2018-06-15T23:29:43.000Z,22.9
2018-06-15T23:39:43.000Z,23
2018-06-15T23:49:43.000Z,22.9
2018-06-15T23:59:43.000Z,23
